sensor_id;sensor_type;location;lat;lon;timestamp;P1;durP1;ratioP1;P2;durP2;ratioP2
47089;SDS011;32840;52.516;13.294;2022-12-18T00:02:31;56.55;;;21.02;;
47089;SDS011;32840;52.516;13.294;2022-12-18T00:05:16;55.40;;;19.90;;
47089;SDS011;32840;52.516;13.294;2022-12-18T00:08:02;54.25;;;20.23;;
47089;SDS011;32840;52.516;13.294;2022-12-18T00:10:46;61.10;;;20.55;;
47089;SDS011;32840;52.516;13.294;2022-12-18T00:13:31;54.33;;;20.20;;
47089;SDS011;32840;52.516;13.294;2022-12-18T00:16:17;56.40;;;20.17;;
47089;SDS011;32840;52.516;13.294;2022-12-18T00:19:05;51.42;;;19.60;;
47089;SDS011;32840;52.516;13.294;2022-12-18T00:21:53;53.03;;;19.08;;
47089;SDS011;32840;52.516;13.294;2022-12-18T00:24:38;54.95;;;18.98;;
47089;SDS011;32840;52.516;13.294;2022-12-18T00:27:22;51.22;;;20.33;;
47089;SDS011;32840;52.516;13.294;2022-12-18T00:30:09;54.25;;;19.73;;
47089;SDS011;32840;52.516;13.294;2022-12-18T00:32:54;49.58;;;19.13;;
47089;SDS011;32840;52.516;13.294;2022-12-18T00:35:40;54.30;;;20.80;;
47089;SDS011;32840;52.516;13.294;2022-12-18T00:38:24;50.58;;;18.25;;
47089;SDS011;32840;52.516;13.294;2022-12-18T00:41:10;51.45;;;19.33;;
47089;SDS011;32840;52.516;13.294;2022-12-18T00:43:56;46.13;;;16.23;;
47089;SDS011;32840;52.516;13.294;2022-12-18T00:46:42;47.42;;;18.08;;
47089;SDS011;32840;52.516;13.294;2022-12-18T00:49:28;42.72;;;17.73;;
47089;SDS011;32840;52.516;13.294;2022-12-18T00:52:13;49.55;;;18.08;;
47089;SDS011;32840;52.516;13.294;2022-12-18T00:54:57;48.47;;;18.88;;
47089;SDS011;32840;52.516;13.294;2022-12-18T00:57:42;53.80;;;19.20;;
47089;SDS011;32840;52.516;13.294;2022-12-18T01:00:27;46.95;;;17.27;;
47089;SDS011;32840;52.516;13.294;2022-12-18T01:03:13;50.38;;;18.88;;
47089;SDS011;32840;52.516;13.294;2022-12-18T01:05:58;51.63;;;18.02;;
47089;SDS011;32840;52.516;13.294;2022-12-18T01:08:43;56.33;;;20.23;;
47089;SDS011;32840;52.516;13.294;2022-12-18T01:11:28;53.05;;;19.67;;
47089;SDS011;32840;52.516;13.294;2022-12-18T01:14:13;53.95;;;20.35;;
47089;SDS011;32840;52.516;13.294;2022-12-18T01:16:58;52.05;;;19.50;;
47089;SDS011;32840;52.516;13.294;2022-12-18T01:19:43;59.20;;;20.05;;
47089;SDS011;32840;52.516;13.294;2022-12-18T01:22:28;56.70;;;20.52;;
47089;SDS011;32840;52.516;13.294;2022-12-18T01:25:13;52.60;;;19.63;;
47089;SDS011;32840;52.516;13.294;2022-12-18T01:27:58;59.70;;;21.13;;
47089;SDS011;32840;52.516;13.294;2022-12-18T01:30:42;55.13;;;20.77;;
47089;SDS011;32840;52.516;13.294;2022-12-18T01:33:27;52.80;;;19.63;;
47089;SDS011;32840;52.516;13.294;2022-12-18T01:36:19;53.83;;;20.10;;
47089;SDS011;32840;52.516;13.294;2022-12-18T01:39:13;50.58;;;20.13;;
47089;SDS011;32840;52.516;13.294;2022-12-18T01:41:59;59.80;;;19.80;;
47089;SDS011;32840;52.516;13.294;2022-12-18T01:48:03;57.47;;;20.50;;
47089;SDS011;32840;52.516;13.294;2022-12-18T01:50:51;50.75;;;19.85;;
47089;SDS011;32840;52.516;13.294;2022-12-18T01:53:37;55.00;;;20.17;;
47089;SDS011;32840;52.516;13.294;2022-12-18T01:56:24;58.60;;;21.52;;
47089;SDS011;32840;52.516;13.294;2022-12-18T01:59:09;58.40;;;21.60;;
47089;SDS011;32840;52.516;13.294;2022-12-18T02:01:55;61.90;;;20.38;;
47089;SDS011;32840;52.516;13.294;2022-12-18T02:04:41;60.13;;;22.30;;
47089;SDS011;32840;52.516;13.294;2022-12-18T02:07:30;64.82;;;21.60;;
47089;SDS011;32840;52.516;13.294;2022-12-18T02:13:46;54.17;;;20.55;;
47089;SDS011;32840;52.516;13.294;2022-12-18T02:16:44;58.90;;;21.23;;
47089;SDS011;32840;52.516;13.294;2022-12-18T02:29:11;58.55;;;21.83;;
47089;SDS011;32840;52.516;13.294;2022-12-18T02:32:00;53.55;;;18.60;;
47089;SDS011;32840;52.516;13.294;2022-12-18T02:34:51;53.10;;;19.27;;
47089;SDS011;32840;52.516;13.294;2022-12-18T02:37:39;51.50;;;18.45;;
47089;SDS011;32840;52.516;13.294;2022-12-18T02:40:25;47.58;;;17.95;;
47089;SDS011;32840;52.516;13.294;2022-12-18T02:43:15;46.65;;;18.65;;
47089;SDS011;32840;52.516;13.294;2022-12-18T02:46:01;51.38;;;19.95;;
47089;SDS011;32840;52.516;13.294;2022-12-18T02:49:17;55.33;;;18.92;;
47089;SDS011;32840;52.516;13.294;2022-12-18T02:56:05;59.42;;;20.70;;
47089;SDS011;32840;52.516;13.294;2022-12-18T02:59:07;51.50;;;19.60;;
47089;SDS011;32840;52.516;13.294;2022-12-18T03:02:04;54.35;;;19.58;;
47089;SDS011;32840;52.516;13.294;2022-12-18T03:05:07;46.13;;;18.05;;
47089;SDS011;32840;52.516;13.294;2022-12-18T03:08:21;56.50;;;19.25;;
47089;SDS011;32840;52.516;13.294;2022-12-18T03:11:13;50.40;;;20.23;;
47089;SDS011;32840;52.516;13.294;2022-12-18T03:13:58;54.90;;;20.42;;
47089;SDS011;32840;52.516;13.294;2022-12-18T03:16:47;51.40;;;17.65;;
47089;SDS011;32840;52.516;13.294;2022-12-18T03:19:42;50.35;;;17.73;;
47089;SDS011;32840;52.516;13.294;2022-12-18T03:22:30;46.72;;;19.33;;
47089;SDS011;32840;52.516;13.294;2022-12-18T03:25:17;49.33;;;17.42;;
47089;SDS011;32840;52.516;13.294;2022-12-18T03:28:04;50.88;;;18.25;;
47089;SDS011;32840;52.516;13.294;2022-12-18T03:30:54;53.13;;;19.27;;
47089;SDS011;32840;52.516;13.294;2022-12-18T03:33:46;50.00;;;19.10;;
47089;SDS011;32840;52.516;13.294;2022-12-18T03:36:35;52.05;;;18.75;;
47089;SDS011;32840;52.516;13.294;2022-12-18T03:39:20;50.53;;;18.08;;
47089;SDS011;32840;52.516;13.294;2022-12-18T03:45:37;64.65;;;22.13;;
47089;SDS011;32840;52.516;13.294;2022-12-18T03:48:31;59.70;;;20.67;;
47089;SDS011;32840;52.516;13.294;2022-12-18T03:54:28;56.67;;;18.80;;
47089;SDS011;32840;52.516;13.294;2022-12-18T03:57:21;53.58;;;18.67;;
47089;SDS011;32840;52.516;13.294;2022-12-18T04:00:11;53.45;;;19.70;;
47089;SDS011;32840;52.516;13.294;2022-12-18T04:02:58;57.08;;;20.20;;
47089;SDS011;32840;52.516;13.294;2022-12-18T04:05:47;58.20;;;19.80;;
47089;SDS011;32840;52.516;13.294;2022-12-18T04:08:34;58.05;;;20.55;;
47089;SDS011;32840;52.516;13.294;2022-12-18T04:11:19;64.70;;;19.65;;
47089;SDS011;32840;52.516;13.294;2022-12-18T04:14:04;57.10;;;19.95;;
47089;SDS011;32840;52.516;13.294;2022-12-18T04:16:49;50.33;;;19.23;;
47089;SDS011;32840;52.516;13.294;2022-12-18T04:19:34;59.42;;;20.90;;
47089;SDS011;32840;52.516;13.294;2022-12-18T04:22:19;60.72;;;22.13;;
47089;SDS011;32840;52.516;13.294;2022-12-18T04:25:04;63.05;;;21.45;;
47089;SDS011;32840;52.516;13.294;2022-12-18T04:27:49;60.85;;;20.95;;
47089;SDS011;32840;52.516;13.294;2022-12-18T04:30:36;60.33;;;20.77;;
47089;SDS011;32840;52.516;13.294;2022-12-18T04:33:21;58.95;;;21.83;;
47089;SDS011;32840;52.516;13.294;2022-12-18T04:36:06;60.88;;;20.90;;
47089;SDS011;32840;52.516;13.294;2022-12-18T04:38:51;64.47;;;23.08;;
47089;SDS011;32840;52.516;13.294;2022-12-18T04:41:36;61.40;;;19.73;;
47089;SDS011;32840;52.516;13.294;2022-12-18T04:44:21;61.20;;;22.17;;
47089;SDS011;32840;52.516;13.294;2022-12-18T04:47:06;70.63;;;23.27;;
47089;SDS011;32840;52.516;13.294;2022-12-18T04:49:51;65.03;;;22.10;;
47089;SDS011;32840;52.516;13.294;2022-12-18T04:52:36;68.18;;;23.27;;
47089;SDS011;32840;52.516;13.294;2022-12-18T04:55:21;67.43;;;22.65;;
47089;SDS011;32840;52.516;13.294;2022-12-18T04:58:09;74.38;;;24.77;;
47089;SDS011;32840;52.516;13.294;2022-12-18T05:00:53;79.50;;;26.55;;
47089;SDS011;32840;52.516;13.294;2022-12-18T05:03:38;70.60;;;23.88;;
47089;SDS011;32840;52.516;13.294;2022-12-18T05:06:24;82.10;;;27.25;;
47089;SDS011;32840;52.516;13.294;2022-12-18T05:09:09;74.32;;;24.58;;
47089;SDS011;32840;52.516;13.294;2022-12-18T05:11:54;76.43;;;26.63;;
47089;SDS011;32840;52.516;13.294;2022-12-18T05:14:38;80.72;;;24.67;;
47089;SDS011;32840;52.516;13.294;2022-12-18T05:17:23;81.78;;;27.67;;
47089;SDS011;32840;52.516;13.294;2022-12-18T05:20:10;89.03;;;29.00;;
47089;SDS011;32840;52.516;13.294;2022-12-18T05:22:55;93.47;;;28.83;;
47089;SDS011;32840;52.516;13.294;2022-12-18T05:25:41;91.60;;;29.77;;
47089;SDS011;32840;52.516;13.294;2022-12-18T05:28:26;89.32;;;29.10;;
47089;SDS011;32840;52.516;13.294;2022-12-18T05:31:13;93.47;;;30.02;;
47089;SDS011;32840;52.516;13.294;2022-12-18T05:33:58;104.15;;;31.50;;
47089;SDS011;32840;52.516;13.294;2022-12-18T05:36:43;100.32;;;31.45;;
47089;SDS011;32840;52.516;13.294;2022-12-18T05:39:28;94.82;;;30.80;;
47089;SDS011;32840;52.516;13.294;2022-12-18T05:42:13;88.95;;;29.95;;
47089;SDS011;32840;52.516;13.294;2022-12-18T05:44:58;100.18;;;30.23;;
47089;SDS011;32840;52.516;13.294;2022-12-18T05:47:43;92.50;;;31.00;;
47089;SDS011;32840;52.516;13.294;2022-12-18T05:50:28;95.10;;;30.48;;
47089;SDS011;32840;52.516;13.294;2022-12-18T05:53:13;99.32;;;31.83;;
47089;SDS011;32840;52.516;13.294;2022-12-18T05:56:00;93.90;;;29.65;;
47089;SDS011;32840;52.516;13.294;2022-12-18T05:58:53;84.30;;;29.98;;
47089;SDS011;32840;52.516;13.294;2022-12-18T06:01:38;88.47;;;27.30;;
47089;SDS011;32840;52.516;13.294;2022-12-18T06:04:23;77.65;;;26.73;;
47089;SDS011;32840;52.516;13.294;2022-12-18T06:07:08;80.25;;;25.80;;
47089;SDS011;32840;52.516;13.294;2022-12-18T06:09:53;83.03;;;27.33;;
47089;SDS011;32840;52.516;13.294;2022-12-18T06:12:38;80.85;;;26.92;;
47089;SDS011;32840;52.516;13.294;2022-12-18T06:15:22;76.70;;;26.48;;
47089;SDS011;32840;52.516;13.294;2022-12-18T06:18:07;80.65;;;27.52;;
47089;SDS011;32840;52.516;13.294;2022-12-18T06:20:59;82.63;;;27.17;;
47089;SDS011;32840;52.516;13.294;2022-12-18T06:23:44;69.85;;;24.52;;
47089;SDS011;32840;52.516;13.294;2022-12-18T06:26:29;70.50;;;24.42;;
47089;SDS011;32840;52.516;13.294;2022-12-18T06:29:14;60.92;;;23.25;;
47089;SDS011;32840;52.516;13.294;2022-12-18T06:31:59;62.67;;;21.90;;
47089;SDS011;32840;52.516;13.294;2022-12-18T06:34:44;66.60;;;22.48;;
47089;SDS011;32840;52.516;13.294;2022-12-18T06:37:30;69.93;;;23.40;;
47089;SDS011;32840;52.516;13.294;2022-12-18T06:40:15;69.13;;;24.80;;
47089;SDS011;32840;52.516;13.294;2022-12-18T06:43:00;70.80;;;24.40;;
47089;SDS011;32840;52.516;13.294;2022-12-18T06:45:45;64.18;;;24.13;;
47089;SDS011;32840;52.516;13.294;2022-12-18T06:48:33;78.85;;;24.88;;
47089;SDS011;32840;52.516;13.294;2022-12-18T06:51:22;82.43;;;28.13;;
47089;SDS011;32840;52.516;13.294;2022-12-18T06:54:08;89.68;;;31.13;;
47089;SDS011;32840;52.516;13.294;2022-12-18T06:56:53;78.05;;;28.90;;
47089;SDS011;32840;52.516;13.294;2022-12-18T06:59:40;88.95;;;28.50;;
47089;SDS011;32840;52.516;13.294;2022-12-18T07:02:29;78.00;;;28.13;;
47089;SDS011;32840;52.516;13.294;2022-12-18T07:05:17;90.88;;;28.60;;
47089;SDS011;32840;52.516;13.294;2022-12-18T07:08:01;79.50;;;29.25;;
47089;SDS011;32840;52.516;13.294;2022-12-18T07:10:47;78.95;;;26.85;;
47089;SDS011;32840;52.516;13.294;2022-12-18T07:13:33;80.05;;;26.88;;
47089;SDS011;32840;52.516;13.294;2022-12-18T07:16:19;81.80;;;26.33;;
47089;SDS011;32840;52.516;13.294;2022-12-18T07:19:04;75.32;;;24.30;;
47089;SDS011;32840;52.516;13.294;2022-12-18T07:21:51;85.45;;;28.08;;
47089;SDS011;32840;52.516;13.294;2022-12-18T07:24:35;86.95;;;28.48;;
47089;SDS011;32840;52.516;13.294;2022-12-18T07:27:21;86.80;;;28.40;;
47089;SDS011;32840;52.516;13.294;2022-12-18T07:30:07;84.38;;;28.05;;
47089;SDS011;32840;52.516;13.294;2022-12-18T07:32:52;77.15;;;28.42;;
47089;SDS011;32840;52.516;13.294;2022-12-18T07:35:37;85.03;;;28.42;;
47089;SDS011;32840;52.516;13.294;2022-12-18T07:38:22;91.90;;;31.15;;
47089;SDS011;32840;52.516;13.294;2022-12-18T07:41:08;86.45;;;28.98;;
47089;SDS011;32840;52.516;13.294;2022-12-18T07:43:55;88.60;;;29.52;;
47089;SDS011;32840;52.516;13.294;2022-12-18T07:46:40;85.57;;;26.27;;
47089;SDS011;32840;52.516;13.294;2022-12-18T07:49:25;70.78;;;25.05;;
47089;SDS011;32840;52.516;13.294;2022-12-18T07:52:09;79.93;;;26.67;;
47089;SDS011;32840;52.516;13.294;2022-12-18T07:54:56;71.05;;;24.10;;
47089;SDS011;32840;52.516;13.294;2022-12-18T07:57:41;91.63;;;31.52;;
47089;SDS011;32840;52.516;13.294;2022-12-18T08:00:26;71.38;;;23.83;;
47089;SDS011;32840;52.516;13.294;2022-12-18T08:03:10;62.50;;;22.90;;
47089;SDS011;32840;52.516;13.294;2022-12-18T08:06:04;60.17;;;22.50;;
47089;SDS011;32840;52.516;13.294;2022-12-18T08:08:51;65.40;;;21.60;;
47089;SDS011;32840;52.516;13.294;2022-12-18T08:11:37;61.33;;;21.95;;
47089;SDS011;32840;52.516;13.294;2022-12-18T08:14:23;59.38;;;21.10;;
47089;SDS011;32840;52.516;13.294;2022-12-18T08:17:08;54.90;;;20.52;;
47089;SDS011;32840;52.516;13.294;2022-12-18T08:19:54;60.55;;;21.20;;
47089;SDS011;32840;52.516;13.294;2022-12-18T08:22:38;51.20;;;17.95;;
47089;SDS011;32840;52.516;13.294;2022-12-18T08:25:23;68.97;;;24.02;;
47089;SDS011;32840;52.516;13.294;2022-12-18T08:28:10;65.45;;;22.70;;
47089;SDS011;32840;52.516;13.294;2022-12-18T08:30:54;68.95;;;23.42;;
47089;SDS011;32840;52.516;13.294;2022-12-18T08:33:41;59.45;;;21.88;;
47089;SDS011;32840;52.516;13.294;2022-12-18T08:36:26;56.88;;;22.08;;
47089;SDS011;32840;52.516;13.294;2022-12-18T08:39:11;61.00;;;22.05;;
47089;SDS011;32840;52.516;13.294;2022-12-18T08:42:06;60.63;;;22.15;;
47089;SDS011;32840;52.516;13.294;2022-12-18T08:45:22;66.88;;;22.63;;
47089;SDS011;32840;52.516;13.294;2022-12-18T08:48:09;59.38;;;20.85;;
47089;SDS011;32840;52.516;13.294;2022-12-18T08:50:55;60.55;;;21.27;;
47089;SDS011;32840;52.516;13.294;2022-12-18T08:53:41;60.45;;;21.70;;
47089;SDS011;32840;52.516;13.294;2022-12-18T08:56:27;60.25;;;22.02;;
47089;SDS011;32840;52.516;13.294;2022-12-18T08:59:12;59.95;;;21.48;;
47089;SDS011;32840;52.516;13.294;2022-12-18T09:02:03;61.90;;;22.65;;
47089;SDS011;32840;52.516;13.294;2022-12-18T09:07:33;62.30;;;22.85;;
47089;SDS011;32840;52.516;13.294;2022-12-18T09:10:18;62.30;;;21.30;;
47089;SDS011;32840;52.516;13.294;2022-12-18T09:13:03;56.67;;;22.08;;
47089;SDS011;32840;52.516;13.294;2022-12-18T09:15:49;57.47;;;22.70;;
47089;SDS011;32840;52.516;13.294;2022-12-18T09:18:38;65.28;;;24.20;;
47089;SDS011;32840;52.516;13.294;2022-12-18T09:21:26;56.00;;;21.45;;
47089;SDS011;32840;52.516;13.294;2022-12-18T09:24:13;69.28;;;24.38;;
47089;SDS011;32840;52.516;13.294;2022-12-18T09:27:00;54.33;;;20.27;;
47089;SDS011;32840;52.516;13.294;2022-12-18T09:29:45;62.72;;;23.35;;
47089;SDS011;32840;52.516;13.294;2022-12-18T09:32:33;59.45;;;21.52;;
47089;SDS011;32840;52.516;13.294;2022-12-18T09:35:17;52.75;;;20.13;;
47089;SDS011;32840;52.516;13.294;2022-12-18T09:38:02;59.67;;;21.48;;
47089;SDS011;32840;52.516;13.294;2022-12-18T09:40:48;54.75;;;19.67;;
47089;SDS011;32840;52.516;13.294;2022-12-18T09:43:41;54.05;;;20.25;;
47089;SDS011;32840;52.516;13.294;2022-12-18T09:46:34;48.05;;;19.92;;
47089;SDS011;32840;52.516;13.294;2022-12-18T09:52:26;56.13;;;19.25;;
47089;SDS011;32840;52.516;13.294;2022-12-18T09:55:39;61.00;;;22.63;;
47089;SDS011;32840;52.516;13.294;2022-12-18T09:58:28;55.55;;;22.33;;
47089;SDS011;32840;52.516;13.294;2022-12-18T10:01:18;54.95;;;20.65;;
47089;SDS011;32840;52.516;13.294;2022-12-18T10:04:07;54.78;;;21.30;;
47089;SDS011;32840;52.516;13.294;2022-12-18T10:09:46;53.60;;;20.42;;
47089;SDS011;32840;52.516;13.294;2022-12-18T10:12:51;60.75;;;21.77;;
47089;SDS011;32840;52.516;13.294;2022-12-18T10:22:18;57.40;;;19.88;;
47089;SDS011;32840;52.516;13.294;2022-12-18T10:25:42;57.97;;;21.08;;
47089;SDS011;32840;52.516;13.294;2022-12-18T10:28:40;57.97;;;21.15;;
47089;SDS011;32840;52.516;13.294;2022-12-18T10:31:25;61.58;;;22.92;;
47089;SDS011;32840;52.516;13.294;2022-12-18T10:34:13;53.58;;;21.95;;
47089;SDS011;32840;52.516;13.294;2022-12-18T10:36:59;49.10;;;20.35;;
47089;SDS011;32840;52.516;13.294;2022-12-18T10:40:05;50.42;;;21.02;;
47089;SDS011;32840;52.516;13.294;2022-12-18T10:43:04;52.92;;;21.23;;
47089;SDS011;32840;52.516;13.294;2022-12-18T10:45:59;62.97;;;22.48;;
47089;SDS011;32840;52.516;13.294;2022-12-18T10:48:54;52.45;;;20.75;;
47089;SDS011;32840;52.516;13.294;2022-12-18T10:51:42;55.38;;;19.10;;
47089;SDS011;32840;52.516;13.294;2022-12-18T10:54:26;57.95;;;22.25;;
47089;SDS011;32840;52.516;13.294;2022-12-18T10:57:15;63.67;;;22.25;;
47089;SDS011;32840;52.516;13.294;2022-12-18T11:00:28;61.97;;;22.70;;
47089;SDS011;32840;52.516;13.294;2022-12-18T11:03:29;58.33;;;22.10;;
47089;SDS011;32840;52.516;13.294;2022-12-18T11:06:22;51.08;;;20.27;;
47089;SDS011;32840;52.516;13.294;2022-12-18T11:15:01;55.70;;;21.60;;
47089;SDS011;32840;52.516;13.294;2022-12-18T11:17:50;50.67;;;20.42;;
47089;SDS011;32840;52.516;13.294;2022-12-18T11:20:35;53.28;;;20.75;;
47089;SDS011;32840;52.516;13.294;2022-12-18T11:23:21;55.08;;;21.67;;
47089;SDS011;32840;52.516;13.294;2022-12-18T11:26:07;62.28;;;22.70;;
47089;SDS011;32840;52.516;13.294;2022-12-18T11:29:08;56.20;;;22.08;;
47089;SDS011;32840;52.516;13.294;2022-12-18T11:32:12;50.13;;;21.60;;
47089;SDS011;32840;52.516;13.294;2022-12-18T11:38:39;60.67;;;23.50;;
47089;SDS011;32840;52.516;13.294;2022-12-18T11:41:26;61.60;;;21.15;;
47089;SDS011;32840;52.516;13.294;2022-12-18T11:45:18;56.45;;;20.13;;
47089;SDS011;32840;52.516;13.294;2022-12-18T11:50:57;61.75;;;20.08;;
47089;SDS011;32840;52.516;13.294;2022-12-18T11:53:44;53.45;;;19.60;;
47089;SDS011;32840;52.516;13.294;2022-12-18T11:56:32;59.63;;;22.42;;
47089;SDS011;32840;52.516;13.294;2022-12-18T11:59:29;56.88;;;21.58;;
47089;SDS011;32840;52.516;13.294;2022-12-18T12:02:33;54.17;;;20.27;;
47089;SDS011;32840;52.516;13.294;2022-12-18T12:12:01;49.70;;;19.02;;
47089;SDS011;32840;52.516;13.294;2022-12-18T12:15:04;43.50;;;15.80;;
47089;SDS011;32840;52.516;13.294;2022-12-18T12:24:01;53.90;;;21.10;;
47089;SDS011;32840;52.516;13.294;2022-12-18T12:30:24;54.00;;;21.48;;
47089;SDS011;32840;52.516;13.294;2022-12-18T12:33:30;53.33;;;21.13;;
47089;SDS011;32840;52.516;13.294;2022-12-18T12:36:21;51.13;;;20.35;;
47089;SDS011;32840;52.516;13.294;2022-12-18T12:39:31;52.72;;;20.70;;
47089;SDS011;32840;52.516;13.294;2022-12-18T12:42:26;51.92;;;20.60;;
47089;SDS011;32840;52.516;13.294;2022-12-18T12:45:53;45.88;;;19.42;;
47089;SDS011;32840;52.516;13.294;2022-12-18T12:48:42;49.47;;;20.50;;
47089;SDS011;32840;52.516;13.294;2022-12-18T12:51:28;47.47;;;18.88;;
47089;SDS011;32840;52.516;13.294;2022-12-18T12:54:21;52.88;;;21.30;;
47089;SDS011;32840;52.516;13.294;2022-12-18T12:57:16;53.78;;;21.05;;
47089;SDS011;32840;52.516;13.294;2022-12-18T13:00:13;52.38;;;20.33;;
47089;SDS011;32840;52.516;13.294;2022-12-18T13:03:06;48.72;;;19.52;;
47089;SDS011;32840;52.516;13.294;2022-12-18T13:06:00;45.88;;;18.67;;
47089;SDS011;32840;52.516;13.294;2022-12-18T13:08:54;46.13;;;19.98;;
47089;SDS011;32840;52.516;13.294;2022-12-18T13:11:44;52.17;;;21.27;;
47089;SDS011;32840;52.516;13.294;2022-12-18T13:14:49;50.58;;;20.05;;
47089;SDS011;32840;52.516;13.294;2022-12-18T13:17:34;49.28;;;20.42;;
47089;SDS011;32840;52.516;13.294;2022-12-18T13:20:19;53.67;;;21.70;;
47089;SDS011;32840;52.516;13.294;2022-12-18T13:28:53;48.50;;;19.80;;
47089;SDS011;32840;52.516;13.294;2022-12-18T13:34:24;46.47;;;19.30;;
47089;SDS011;32840;52.516;13.294;2022-12-18T13:41:15;49.15;;;20.67;;
47089;SDS011;32840;52.516;13.294;2022-12-18T13:46:45;48.30;;;20.25;;
47089;SDS011;32840;52.516;13.294;2022-12-18T13:49:36;48.38;;;20.55;;
47089;SDS011;32840;52.516;13.294;2022-12-18T13:52:27;56.38;;;22.25;;
47089;SDS011;32840;52.516;13.294;2022-12-18T13:55:18;48.88;;;21.10;;
47089;SDS011;32840;52.516;13.294;2022-12-18T13:58:04;50.08;;;20.75;;
47089;SDS011;32840;52.516;13.294;2022-12-18T14:00:50;53.33;;;23.27;;
47089;SDS011;32840;52.516;13.294;2022-12-18T14:03:34;56.70;;;23.77;;
47089;SDS011;32840;52.516;13.294;2022-12-18T14:06:19;47.97;;;21.77;;
47089;SDS011;32840;52.516;13.294;2022-12-18T14:09:04;45.17;;;20.80;;
47089;SDS011;32840;52.516;13.294;2022-12-18T14:11:49;48.33;;;21.90;;
47089;SDS011;32840;52.516;13.294;2022-12-18T14:14:35;54.55;;;22.92;;
47089;SDS011;32840;52.516;13.294;2022-12-18T14:17:21;51.85;;;20.92;;
47089;SDS011;32840;52.516;13.294;2022-12-18T14:20:12;47.38;;;20.88;;
47089;SDS011;32840;52.516;13.294;2022-12-18T14:23:01;51.78;;;22.70;;
47089;SDS011;32840;52.516;13.294;2022-12-18T14:25:46;56.17;;;25.27;;
47089;SDS011;32840;52.516;13.294;2022-12-18T14:28:32;52.35;;;24.33;;
47089;SDS011;32840;52.516;13.294;2022-12-18T14:31:26;55.38;;;24.98;;
47089;SDS011;32840;52.516;13.294;2022-12-18T14:34:16;63.60;;;25.75;;
47089;SDS011;32840;52.516;13.294;2022-12-18T14:37:01;65.95;;;27.02;;
47089;SDS011;32840;52.516;13.294;2022-12-18T14:39:56;65.15;;;27.05;;
47089;SDS011;32840;52.516;13.294;2022-12-18T14:42:42;65.57;;;26.50;;
47089;SDS011;32840;52.516;13.294;2022-12-18T14:45:34;60.58;;;25.70;;
47089;SDS011;32840;52.516;13.294;2022-12-18T14:48:41;67.32;;;27.95;;
47089;SDS011;32840;52.516;13.294;2022-12-18T14:51:28;73.75;;;29.73;;
47089;SDS011;32840;52.516;13.294;2022-12-18T14:54:16;59.97;;;26.70;;
47089;SDS011;32840;52.516;13.294;2022-12-18T14:57:04;62.17;;;27.17;;
47089;SDS011;32840;52.516;13.294;2022-12-18T15:00:07;68.68;;;27.90;;
47089;SDS011;32840;52.516;13.294;2022-12-18T15:03:00;54.40;;;24.90;;
47089;SDS011;32840;52.516;13.294;2022-12-18T15:05:45;64.65;;;25.48;;
47089;SDS011;32840;52.516;13.294;2022-12-18T15:08:34;64.93;;;27.83;;
47089;SDS011;32840;52.516;13.294;2022-12-18T15:11:27;59.80;;;26.27;;
47089;SDS011;32840;52.516;13.294;2022-12-18T15:17:22;57.00;;;26.23;;
47089;SDS011;32840;52.516;13.294;2022-12-18T15:20:09;54.90;;;25.35;;
47089;SDS011;32840;52.516;13.294;2022-12-18T15:22:55;53.17;;;23.55;;
47089;SDS011;32840;52.516;13.294;2022-12-18T15:25:39;46.10;;;23.52;;
47089;SDS011;32840;52.516;13.294;2022-12-18T15:28:34;50.08;;;22.38;;
47089;SDS011;32840;52.516;13.294;2022-12-18T15:31:31;46.60;;;20.88;;
47089;SDS011;32840;52.516;13.294;2022-12-18T15:34:19;68.50;;;32.28;;
47089;SDS011;32840;52.516;13.294;2022-12-18T15:37:06;42.10;;;19.23;;
47089;SDS011;32840;52.516;13.294;2022-12-18T15:39:51;43.10;;;20.95;;
47089;SDS011;32840;52.516;13.294;2022-12-18T15:42:36;38.30;;;18.08;;
47089;SDS011;32840;52.516;13.294;2022-12-18T15:45:39;40.95;;;19.25;;
47089;SDS011;32840;52.516;13.294;2022-12-18T15:48:24;48.00;;;22.02;;
47089;SDS011;32840;52.516;13.294;2022-12-18T15:51:56;37.15;;;18.42;;
47089;SDS011;32840;52.516;13.294;2022-12-18T15:54:18;39.25;;;18.73;;
47089;SDS011;32840;52.516;13.294;2022-12-18T15:57:24;40.08;;;20.10;;
47089;SDS011;32840;52.516;13.294;2022-12-18T16:00:11;42.20;;;20.15;;
47089;SDS011;32840;52.516;13.294;2022-12-18T16:02:56;43.17;;;19.60;;
47089;SDS011;32840;52.516;13.294;2022-12-18T16:05:42;40.70;;;20.10;;
47089;SDS011;32840;52.516;13.294;2022-12-18T16:08:30;44.45;;;19.02;;
47089;SDS011;32840;52.516;13.294;2022-12-18T16:11:22;47.35;;;22.50;;
47089;SDS011;32840;52.516;13.294;2022-12-18T16:14:30;40.17;;;19.80;;
47089;SDS011;32840;52.516;13.294;2022-12-18T16:17:16;40.00;;;19.52;;
47089;SDS011;32840;52.516;13.294;2022-12-18T16:20:01;40.15;;;19.77;;
47089;SDS011;32840;52.516;13.294;2022-12-18T16:22:46;45.35;;;22.80;;
47089;SDS011;32840;52.516;13.294;2022-12-18T16:25:31;40.80;;;19.98;;
47089;SDS011;32840;52.516;13.294;2022-12-18T16:28:18;39.22;;;19.98;;
47089;SDS011;32840;52.516;13.294;2022-12-18T16:31:02;43.75;;;22.42;;
47089;SDS011;32840;52.516;13.294;2022-12-18T16:33:49;45.25;;;20.60;;
47089;SDS011;32840;52.516;13.294;2022-12-18T16:36:33;45.47;;;21.80;;
47089;SDS011;32840;52.516;13.294;2022-12-18T16:39:18;42.38;;;19.80;;
47089;SDS011;32840;52.516;13.294;2022-12-18T16:42:05;38.60;;;19.85;;
47089;SDS011;32840;52.516;13.294;2022-12-18T16:44:53;41.22;;;21.38;;
47089;SDS011;32840;52.516;13.294;2022-12-18T16:47:38;45.10;;;21.38;;
47089;SDS011;32840;52.516;13.294;2022-12-18T16:50:23;41.67;;;21.08;;
47089;SDS011;32840;52.516;13.294;2022-12-18T16:53:08;41.00;;;19.50;;
47089;SDS011;32840;52.516;13.294;2022-12-18T16:55:54;44.17;;;20.83;;
47089;SDS011;32840;52.516;13.294;2022-12-18T16:58:40;45.53;;;22.13;;
47089;SDS011;32840;52.516;13.294;2022-12-18T17:01:25;46.67;;;21.40;;
47089;SDS011;32840;52.516;13.294;2022-12-18T17:04:13;43.33;;;21.25;;
47089;SDS011;32840;52.516;13.294;2022-12-18T17:06:58;43.92;;;20.50;;
47089;SDS011;32840;52.516;13.294;2022-12-18T17:09:43;45.17;;;20.50;;
47089;SDS011;32840;52.516;13.294;2022-12-18T17:12:29;44.58;;;21.63;;
47089;SDS011;32840;52.516;13.294;2022-12-18T17:15:15;50.70;;;24.38;;
47089;SDS011;32840;52.516;13.294;2022-12-18T17:18:01;44.47;;;20.83;;
47089;SDS011;32840;52.516;13.294;2022-12-18T17:20:47;45.60;;;21.52;;
47089;SDS011;32840;52.516;13.294;2022-12-18T17:23:31;45.33;;;21.15;;
47089;SDS011;32840;52.516;13.294;2022-12-18T17:26:17;42.72;;;21.50;;
47089;SDS011;32840;52.516;13.294;2022-12-18T17:29:02;47.72;;;23.02;;
47089;SDS011;32840;52.516;13.294;2022-12-18T17:31:47;46.35;;;21.40;;
47089;SDS011;32840;52.516;13.294;2022-12-18T17:34:32;49.80;;;22.40;;
47089;SDS011;32840;52.516;13.294;2022-12-18T17:37:17;48.05;;;22.08;;
47089;SDS011;32840;52.516;13.294;2022-12-18T17:40:02;47.00;;;22.15;;
47089;SDS011;32840;52.516;13.294;2022-12-18T17:42:47;48.28;;;22.92;;